Time;durP1;ratioP1;P1;durP2;ratioP2;P2;SDS_P1;SDS_P2;PMS_P1;PMS_P2;Temp;Humidity;BMP_temperature;BMP_pressure;BME280_temperature;BME280_humidity;BME280_pressure;Samples;Min_cycle;Max_cycle;Signal;HPM_P1;HPM_P2
2022/12/11 00:00:28;;;;;;;;;4.00;4.00;;;;;19.63;59.67;100211.98;105855;1294;19009;-65
2022/12/11 00:03:15;;;;;;;;;2.00;2.00;;;;;19.62;59.52;100207.52;105916;1279;20474;-64
2022/12/11 00:05:43;;;;;;;;;1.00;1.00;;;;;19.62;59.46;100204.39;105887;1286;19443;-65
2022/12/11 00:08:10;;;;;;;;;1.00;1.00;;;;;19.63;59.62;100206.33;105867;1280;22156;-64
2022/12/11 00:10:38;;;;;;;;;;;;;;;19.63;59.38;100202.14;105924;1287;19984;-64
2022/12/11 00:13:05;;;;;;;;;4.00;2.00;;;;;19.63;59.30;100203.77;105931;1279;21112;-65
2022/12/11 00:15:32;;;;;;;;;1.50;1.50;;;;;19.63;59.52;100200.55;105827;1286;18343;-65
2022/12/11 00:18:00;;;;;;;;;3.00;2.00;;;;;19.63;59.49;100200.35;105277;1295;807057;-64
2022/12/11 00:20:27;;;;;;;;;1.00;1.00;;;;;19.64;59.53;100202.07;105877;1280;19477;-65
2022/12/11 00:22:54;;;;;;;;;4.00;2.00;;;;;19.64;59.22;100199.89;105874;1293;18342;-66
2022/12/11 00:25:22;;;;;;;;;2.00;2.00;;;;;19.63;59.33;100191.58;105921;1280;18403;-65
2022/12/11 00:27:49;;;;;;;;;2.00;2.00;;;;;19.64;59.45;100189.33;105832;1294;23270;-65
2022/12/11 00:30:16;;;;;;;;;2.00;1.00;;;;;19.63;59.35;100181.45;105844;1294;18458;-65
2022/12/11 00:32:44;;;;;;;;;1.00;1.00;;;;;19.64;59.36;100177.95;105865;1280;22624;-65
2022/12/11 00:35:11;;;;;;;;;1.00;1.00;;;;;19.64;59.42;100176.82;105881;1289;19274;-65
2022/12/11 00:37:38;;;;;;;;;2.00;2.00;;;;;19.64;59.42;100179.88;105887;1295;18422;-65
2022/12/11 00:40:06;;;;;;;;;1.00;1.00;;;;;19.64;59.24;100183.76;105890;1301;18511;-64
2022/12/11 00:42:33;;;;;;;;;2.00;1.00;;;;;19.65;59.17;100185.41;105920;1287;19777;-65
2022/12/11 00:45:00;;;;;;;;;2.00;2.00;;;;;19.64;59.36;100183.64;105886;1272;19144;-65
2022/12/11 00:47:27;;;;;;;;;2.00;2.00;;;;;19.64;59.23;100184.56;105867;1279;20372;-65
2022/12/11 00:49:55;;;;;;;;;2.00;2.00;;;;;19.64;59.08;100185.52;105840;1286;22276;-64
2022/12/11 00:52:23;;;;;;;;;2.00;2.00;;;;;19.64;59.24;100183.14;105885;1292;19627;-66
2022/12/11 00:54:50;;;;;;;;;2.00;2.00;;;;;19.64;59.20;100181.55;105871;1287;23638;-64
2022/12/11 00:57:18;;;;;;;;;4.00;4.00;;;;;19.64;59.02;100186.10;105740;1294;20984;-64
2022/12/11 00:59:45;;;;;;;;;1.00;1.00;;;;;19.64;58.93;100189.20;105839;1286;20034;-65
2022/12/11 01:02:12;;;;;;;;;1.00;1.00;;;;;19.63;59.00;100183.45;105858;1295;19756;-64
2022/12/11 01:04:40;;;;;;;;;2.00;2.00;;;;;19.63;58.89;100179.11;105900;1279;20984;-65
2022/12/11 01:07:07;;;;;;;;;1.00;1.00;;;;;19.64;58.93;100183.34;105912;1294;19961;-65
2022/12/11 01:12:20;;;;;;;;;2.00;2.00;;;;;19.64;58.91;100180.45;105838;1272;22029;-65
2022/12/11 01:14:47;;;;;;;;;2.00;1.00;;;;;19.64;58.78;100174.10;105822;1280;20022;-65
2022/12/11 01:17:14;;;;;;;;;1.00;1.00;;;;;19.63;58.94;100170.91;105829;1280;22898;-65
2022/12/11 01:19:42;;;;;;;;;1.00;1.00;;;;;19.63;58.98;100174.38;105887;1278;19433;-65
2022/12/11 01:22:09;;;;;;;;;1.00;1.00;;;;;19.63;58.90;100177.17;105932;1282;21060;-65
2022/12/11 01:24:36;;;;;;;;;2.00;1.00;;;;;19.63;58.70;100179.52;105864;1294;18526;-63
2022/12/11 01:27:04;;;;;;;;;1.00;1.00;;;;;19.62;58.88;100178.70;105871;1279;19278;-66
2022/12/11 01:29:31;;;;;;;;;2.00;1.00;;;;;19.63;58.67;100180.60;105932;1280;20427;-65
2022/12/11 01:31:58;;;;;;;;;2.00;2.00;;;;;19.63;58.67;100178.80;105701;1286;18773;-65
2022/12/11 01:34:26;;;;;;;;;2.00;2.00;;;;;19.63;58.64;100177.88;105945;1294;19249;-65
2022/12/11 01:36:53;;;;;;;;;1.67;1.67;;;;;19.61;58.55;100172.11;105838;1294;20117;-64
2022/12/11 01:39:20;;;;;;;;;1.33;1.33;;;;;19.61;58.69;100180.36;105862;1295;20204;-64
2022/12/11 01:41:48;;;;;;;;;1.00;1.00;;;;;19.62;58.67;100173.27;105888;1272;21889;-64
2022/12/11 01:44:15;;;;;;;;;1.00;1.00;;;;;19.62;58.66;100166.61;105855;1300;22458;-65
2022/12/11 01:46:42;;;;;;;;;1.00;1.00;;;;;19.62;58.72;100169.80;105920;1293;20092;-65
2022/12/11 01:49:10;;;;;;;;;2.00;1.00;;;;;19.62;58.62;100171.15;105905;1295;20687;-65
2022/12/11 01:51:37;;;;;;;;;2.00;1.00;;;;;19.62;58.55;100170.79;105845;1295;18765;-64
2022/12/11 01:54:04;;;;;;;;;1.00;1.00;;;;;19.61;58.56;100165.64;105873;1280;20057;-65
2022/12/11 01:56:32;;;;;;;;;1.00;1.00;;;;;19.60;58.64;100165.33;105878;1280;19264;-65
2022/12/11 01:58:59;;;;;;;;;1.00;1.00;;;;;19.61;58.57;100163.00;105761;1272;19580;-66
2022/12/11 02:01:26;;;;;;;;;1.50;1.50;;;;;19.60;58.55;100160.27;105923;1295;19917;-65
2022/12/11 02:03:54;;;;;;;;;1.00;1.00;;;;;19.60;58.43;100162.40;105877;1286;20684;-65
2022/12/11 02:06:21;;;;;;;;;2.00;1.00;;;;;19.60;58.65;100164.81;105911;1280;18399;-65
2022/12/11 02:08:48;;;;;;;;;1.00;1.00;;;;;19.59;58.45;100164.35;105895;1281;18472;-66
2022/12/11 02:11:16;;;;;;;;;1.00;1.00;;;;;19.61;58.48;100167.80;105832;1294;20737;-66
2022/12/11 02:13:43;;;;;;;;;1.00;1.00;;;;;19.60;58.66;100167.29;105880;1280;20258;-66
2022/12/11 02:16:10;;;;;;;;;1.00;1.00;;;;;19.60;58.47;100171.85;105899;1289;18737;-65
2022/12/11 02:18:38;;;;;;;;;1.00;1.00;;;;;19.60;58.41;100167.67;105829;1295;19282;-65
2022/12/11 02:21:05;;;;;;;;;1.00;1.00;;;;;19.60;58.59;100174.98;105843;1276;19617;-65
2022/12/11 02:23:32;;;;;;;;;1.00;1.00;;;;;19.60;58.39;100172.84;105758;1280;21632;-63
2022/12/11 02:26:00;;;;;;;;;1.00;1.00;;;;;19.60;58.31;100177.83;105773;1286;19385;-65
2022/12/11 02:28:27;;;;;;;;;2.00;1.00;;;;;19.59;58.35;100174.67;105963;1295;20745;-64
2022/12/11 02:30:54;;;;;;;;;1.00;1.00;;;;;19.58;58.42;100171.19;105815;1294;20033;-66
2022/12/11 02:33:22;;;;;;;;;2.00;2.00;;;;;19.59;58.35;100165.89;105793;1280;20873;-65
2022/12/11 02:35:49;;;;;;;;;2.00;2.00;;;;;19.58;58.39;100163.00;105887;1280;19695;-66
2022/12/11 02:38:17;;;;;;;;;1.00;1.00;;;;;19.58;58.34;100162.31;105883;1280;18675;-66
2022/12/11 02:40:44;;;;;;;;;1.00;1.00;;;;;19.59;58.26;100152.48;105797;1280;20923;-66
2022/12/11 02:43:11;;;;;;;;;1.00;1.00;;;;;19.58;58.39;100144.72;105905;1280;19681;-65
2022/12/11 02:45:39;;;;;;;;;1.00;1.00;;;;;19.58;58.22;100134.77;105885;1293;18553;-65
2022/12/11 02:48:06;;;;;;;;;1.00;1.00;;;;;19.58;58.34;100135.64;105903;1280;20789;-65
2022/12/11 02:50:33;;;;;;;;;2.00;1.00;;;;;19.58;58.08;100130.82;105910;1279;18247;-65
2022/12/11 02:53:01;;;;;;;;;1.00;1.00;;;;;19.58;58.08;100127.05;105881;1295;18776;-63
2022/12/11 02:55:28;;;;;;;;;1.00;1.00;;;;;19.57;58.16;100132.14;105915;1295;19286;-65
2022/12/11 02:57:55;;;;;;;;;2.00;1.00;;;;;19.57;58.06;100137.92;105866;1280;18476;-65
2022/12/11 03:00:23;;;;;;;;;2.00;2.00;;;;;19.58;58.27;100141.09;105860;1273;18634;-64
2022/12/11 03:02:50;;;;;;;;;1.00;1.00;;;;;19.58;58.07;100131.20;105861;1295;20775;-64
2022/12/11 03:05:18;;;;;;;;;1.00;1.00;;;;;19.57;58.10;100127.83;105863;1281;22147;-64
2022/12/11 03:07:45;;;;;;;;;1.00;1.00;;;;;19.57;58.19;100129.26;105920;1285;20039;-64
2022/12/11 03:10:13;;;;;;;;;1.00;1.00;;;;;19.58;58.16;100127.77;105874;1300;20101;-64
2022/12/11 03:12:40;;;;;;;;;1.00;1.00;;;;;19.56;58.26;100123.54;105795;1273;18402;-65
2022/12/11 03:15:08;;;;;;;;;1.00;1.00;;;;;19.56;58.12;100123.00;105842;1279;18952;-65
2022/12/11 03:17:36;;;;;;;;;1.00;1.00;;;;;19.56;57.97;100117.42;105778;1280;19276;-65
2022/12/11 03:20:04;;;;;;;;;2.00;1.50;;;;;19.56;57.88;100111.06;105622;1280;18479;-65
2022/12/11 03:22:32;;;;;;;;;1.00;1.00;;;;;19.56;57.92;100111.13;105918;1288;19965;-65
2022/12/11 03:24:59;;;;;;;;;1.00;1.00;;;;;19.56;58.09;100110.01;105901;1288;20744;-63
2022/12/11 03:27:26;;;;;;;;;1.00;1.00;;;;;19.55;58.11;100115.86;105908;1280;19348;-63
2022/12/11 03:29:53;;;;;;;;;1.00;1.00;;;;;19.55;58.07;100108.48;105874;1279;20016;-65
2022/12/11 03:32:21;;;;;;;;;1.00;1.00;;;;;19.55;57.99;100106.08;105873;1294;22710;-64
2022/12/11 03:34:49;;;;;;;;;1.00;1.00;;;;;19.55;58.15;100100.69;105863;1299;18634;-65
2022/12/11 03:37:16;;;;;;;;;1.00;1.00;;;;;19.55;57.92;100099.09;105955;1294;18494;-65
2022/12/11 03:39:44;;;;;;;;;1.00;1.00;;;;;19.55;58.00;100100.14;105883;1288;22042;-65
2022/12/11 03:42:11;;;;;;;;;1.00;1.00;;;;;19.54;58.01;100102.52;105859;1294;19495;-65
2022/12/11 03:44:38;;;;;;;;;1.00;1.00;;;;;19.56;57.88;100100.61;105803;1278;22787;-64
2022/12/11 03:47:05;;;;;;;;;2.00;2.00;;;;;19.55;57.87;100094.23;105851;1272;20925;-64
2022/12/11 03:49:33;;;;;;;;;2.00;1.00;;;;;19.54;57.87;100095.90;105885;1293;21301;-64
2022/12/11 03:52:00;;;;;;;;;1.00;1.00;;;;;19.54;57.77;100089.25;105862;1298;18630;-64
2022/12/11 03:54:27;;;;;;;;;2.00;1.00;;;;;19.53;57.91;100089.86;105765;1295;19272;-64
2022/12/11 03:56:55;;;;;;;;;1.00;1.00;;;;;19.54;57.61;100090.88;105890;1280;18377;-64
2022/12/11 03:59:22;;;;;;;;;1.00;1.00;;;;;19.54;57.83;100092.14;105917;1279;19990;-65
2022/12/11 04:01:49;;;;;;;;;2.00;1.00;;;;;19.55;57.73;100090.77;105715;1294;21601;-64
2022/12/11 04:04:17;;;;;;;;;1.00;1.00;;;;;19.54;57.78;100089.25;105775;1294;19613;-64
2022/12/11 04:06:44;;;;;;;;;2.00;2.00;;;;;19.55;57.72;100091.48;105793;1280;18609;-65
2022/12/11 04:09:11;;;;;;;;;2.00;2.00;;;;;19.54;57.73;100085.64;105770;1280;23378;-65
2022/12/11 04:11:39;;;;;;;;;1.00;1.00;;;;;19.54;57.74;100088.70;105777;1285;19568;-65
2022/12/11 04:16:51;;;;;;;;;1.00;1.00;;;;;19.54;57.53;100093.52;105876;1295;19230;-64
2022/12/11 04:24:49;;;;;;;;;4.00;2.00;;;;;19.53;57.59;100096.21;105856;1279;20747;-65
2022/12/11 04:27:47;;;;;;;;;1.00;1.00;;;;;19.53;57.58;100098.77;105831;1286;19798;-65
2022/12/11 04:30:04;;;;;;;;;1.00;1.00;;;;;19.54;57.67;100097.61;105863;1286;18501;-66
2022/12/11 04:32:31;;;;;;;;;1.00;1.00;;;;;19.53;57.53;100100.54;105844;1295;20786;-63
2022/12/11 04:34:59;;;;;;;;;4.00;2.00;;;;;19.54;57.48;100099.95;105864;1279;18635;-66
2022/12/11 04:37:26;;;;;;;;;2.00;1.00;;;;;19.54;57.66;100101.04;105929;1279;20045;-63
2022/12/11 04:39:53;;;;;;;;;1.00;1.00;;;;;19.53;57.54;100094.21;105841;1272;19257;-65
2022/12/11 04:42:21;;;;;;;;;1.00;1.00;;;;;19.53;57.59;100094.42;105856;1272;19695;-65
2022/12/11 04:44:48;;;;;;;;;1.00;1.00;;;;;19.52;57.52;100088.55;105880;1273;20039;-64
2022/12/11 04:47:15;;;;;;;;;1.00;1.00;;;;;19.52;57.46;100093.25;105874;1280;20816;-64
2022/12/11 04:49:43;;;;;;;;;1.00;1.00;;;;;19.52;57.30;100095.08;105866;1272;21642;-64
2022/12/11 04:52:10;;;;;;;;;1.00;1.00;;;;;19.52;57.32;100099.43;105927;1295;19928;-65
2022/12/11 04:54:37;;;;;;;;;1.00;1.00;;;;;19.51;57.30;100098.25;105865;1294;20606;-64
2022/12/11 04:57:05;;;;;;;;;1.00;1.00;;;;;19.53;57.54;100099.36;105857;1294;22763;-64
2022/12/11 04:59:32;;;;;;;;;1.00;1.00;;;;;19.51;57.52;100096.10;105856;1279;19963;-64
2022/12/11 05:01:59;;;;;;;;;1.00;1.00;;;;;19.51;57.28;100097.90;105892;1280;21933;-64
2022/12/11 05:04:27;;;;;;;;;2.00;2.00;;;;;19.51;57.53;100096.60;105840;1295;18565;-64
2022/12/11 05:06:54;;;;;;;;;1.00;1.00;;;;;19.50;57.42;100096.58;105762;1295;19593;-65
2022/12/11 05:09:21;;;;;;;;;1.00;1.00;;;;;19.50;57.37;100094.74;105768;1280;19269;-63
2022/12/11 05:11:49;;;;;;;;;1.00;1.00;;;;;19.50;57.41;100094.41;105758;1278;20821;-65
2022/12/11 05:14:16;;;;;;;;;2.00;2.00;;;;;19.50;57.27;100095.09;105751;1280;18501;-64
2022/12/11 05:16:43;;;;;;;;;1.00;1.00;;;;;19.49;57.48;100092.07;105832;1286;22013;-65
2022/12/11 05:19:11;;;;;;;;;1.00;1.00;;;;;19.48;57.12;100085.31;105782;1289;19670;-65
2022/12/11 05:21:38;;;;;;;;;1.00;1.00;;;;;19.49;57.47;100089.42;105817;1280;21965;-64
2022/12/11 05:24:05;;;;;;;;;1.00;1.00;;;;;19.50;57.23;100089.14;105807;1276;23429;-64
2022/12/11 05:26:33;;;;;;;;;1.00;1.00;;;;;19.50;57.32;100083.70;105769;1278;19811;-64
2022/12/11 05:29:00;;;;;;;;;1.00;1.00;;;;;19.50;57.35;100079.48;105875;1280;21295;-64
2022/12/11 05:31:27;;;;;;;;;1.00;1.00;;;;;19.50;57.28;100076.64;105905;1294;19281;-65
2022/12/11 05:33:55;;;;;;;;;1.00;1.00;;;;;19.50;57.24;100075.95;105841;1295;18916;-65
2022/12/11 05:36:22;;;;;;;;;2.00;2.00;;;;;19.47;57.19;100067.15;105901;1286;18460;-65
2022/12/11 05:38:49;;;;;;;;;1.00;1.00;;;;;19.47;57.15;100067.48;105906;1294;21934;-66
2022/12/11 05:41:17;;;;;;;;;;;;;;;19.47;57.31;100067.83;105891;1280;18636;-65
2022/12/11 05:43:44;;;;;;;;;1.00;1.00;;;;;19.48;57.15;100063.11;105939;1279;19820;-65
2022/12/11 05:46:12;;;;;;;;;2.00;2.00;;;;;19.48;56.99;100058.17;105890;1301;22167;-65
2022/12/11 05:48:39;;;;;;;;;1.00;1.00;;;;;19.47;57.29;100058.80;105849;1291;19606;-65
2022/12/11 05:51:07;;;;;;;;;1.00;1.00;;;;;19.48;57.10;100057.33;105900;1292;22592;-65
2022/12/11 05:53:34;;;;;;;;;1.00;1.00;;;;;19.47;57.16;100054.61;105848;1273;20553;-66
2022/12/11 05:56:01;;;;;;;;;1.00;1.00;;;;;19.48;57.28;100053.66;105899;1278;21630;-65
2022/12/11 05:58:29;;;;;;;;;2.00;2.00;;;;;19.47;57.05;100047.04;105935;1295;19930;-65
2022/12/11 06:00:56;;;;;;;;;1.00;1.00;;;;;19.47;57.01;100049.38;105821;1272;19503;-63
2022/12/11 06:03:24;;;;;;;;;1.50;1.50;;;;;19.47;56.91;100043.98;105889;1280;18457;-65
2022/12/11 06:05:51;;;;;;;;;1.50;1.50;;;;;19.47;56.96;100043.79;105877;1280;18488;-65
2022/12/11 06:08:19;;;;;;;;;1.00;1.00;;;;;19.46;56.95;100043.02;105889;1265;19281;-65
2022/12/11 06:10:46;;;;;;;;;1.00;1.00;;;;;19.47;57.17;100036.67;105902;1278;20826;-64
2022/12/11 06:13:14;;;;;;;;;1.00;1.00;;;;;19.46;57.10;100040.64;105807;1278;19955;-64
2022/12/11 06:15:41;;;;;;;;;1.00;1.00;;;;;19.47;56.99;100038.17;105799;1286;22095;-66
2022/12/11 06:18:08;;;;;;;;;1.00;1.00;;;;;19.47;56.78;100041.81;105806;1280;18411;-65
2022/12/11 06:20:35;;;;;;;;;1.00;1.00;;;;;19.47;56.98;100042.94;105734;1294;18569;-64
2022/12/11 06:23:03;;;;;;;;;1.00;1.00;;;;;19.47;56.79;100044.69;105733;1280;20231;-64
2022/12/11 06:25:30;;;;;;;;;2.00;2.00;;;;;19.46;56.98;100048.80;105774;1294;18442;-65
2022/12/11 06:27:57;;;;;;;;;2.00;2.00;;;;;19.46;56.91;100041.89;105767;1286;22923;-64
2022/12/11 06:30:25;;;;;;;;;1.00;1.00;;;;;19.46;56.85;100040.01;105795;1279;19547;-65
2022/12/11 06:32:52;;;;;;;;;1.50;1.50;;;;;19.46;57.02;100040.98;105789;1273;22212;-65
2022/12/11 06:35:19;;;;;;;;;1.00;1.00;;;;;19.45;56.88;100041.33;105729;1279;18361;-65
2022/12/11 06:37:47;;;;;;;;;2.00;1.00;;;;;19.45;56.91;100045.88;105762;1294;19284;-65
2022/12/11 06:40:14;;;;;;;;;1.00;1.00;;;;;19.45;56.66;100052.82;105766;1295;18539;-64
2022/12/11 06:42:42;;;;;;;;;1.00;1.00;;;;;19.45;56.83;100054.38;105819;1280;20447;-65
2022/12/11 06:45:09;;;;;;;;;1.00;1.00;;;;;19.45;56.63;100059.23;105772;1280;19306;-65
2022/12/11 06:47:36;;;;;;;;;1.00;1.00;;;;;19.45;56.67;100059.13;105788;1280;22697;-64
2022/12/11 06:50:03;;;;;;;;;1.00;1.00;;;;;19.45;56.66;100057.05;105798;1280;19902;-64
2022/12/11 06:52:31;;;;;;;;;2.00;2.00;;;;;19.45;56.80;100054.79;105823;1293;20723;-65
2022/12/11 06:54:58;;;;;;;;;1.00;1.00;;;;;19.44;56.52;100060.86;105788;1278;18728;-66
2022/12/11 06:57:25;;;;;;;;;1.00;1.00;;;;;19.44;56.90;100058.83;105793;1272;19985;-65
2022/12/11 06:59:53;;;;;;;;;1.00;1.00;;;;;19.44;56.74;100057.77;105832;1280;21565;-66
2022/12/11 07:02:20;;;;;;;;;3.00;3.00;;;;;19.46;56.63;100056.48;105851;1280;19643;-66
2022/12/11 07:04:47;;;;;;;;;1.00;1.00;;;;;19.45;56.66;100057.64;105756;1284;18593;-65
2022/12/11 07:07:15;;;;;;;;;1.00;1.00;;;;;19.47;56.85;100061.25;105801;1276;19589;-65
2022/12/11 07:09:42;;;;;;;;;1.00;1.00;;;;;19.47;56.80;100059.88;105820;1289;18540;-64
2022/12/11 07:12:09;;;;;;;;;2.00;1.00;;;;;19.49;56.81;100061.87;105858;1281;20017;-65
2022/12/11 07:14:37;;;;;;;;;1.00;1.00;;;;;19.52;56.84;100065.94;105747;1280;20202;-66
2022/12/11 07:17:04;;;;;;;;;1.00;1.00;;;;;19.55;56.84;100067.77;105665;1273;18360;-63
2022/12/11 07:19:31;;;;;;;;;1.00;1.00;;;;;19.58;57.14;100067.06;105851;1279;18716;-64
2022/12/11 07:21:59;;;;;;;;;1.00;1.00;;;;;19.59;57.25;100066.36;105623;1272;21954;-66
2022/12/11 07:24:26;;;;;;;;;2.00;2.00;;;;;19.58;57.13;100067.85;105632;1272;19570;-64
2022/12/11 07:26:53;;;;;;;;;2.00;2.00;;;;;19.58;57.03;100065.23;105763;1273;19329;-65
2022/12/11 07:29:21;;;;;;;;;1.50;1.50;;;;;19.56;57.23;100060.17;105714;1273;19502;-65
2022/12/11 07:31:48;;;;;;;;;1.00;1.00;;;;;19.55;57.56;100058.27;105832;1294;19269;-65
2022/12/11 07:34:15;;;;;;;;;2.00;2.00;;;;;19.53;57.30;100057.84;105916;1288;20001;-64
2022/12/11 07:36:43;;;;;;;;;1.00;1.00;;;;;19.52;57.50;100059.78;105805;1295;19329;-64
2022/12/11 07:39:10;;;;;;;;;1.00;1.00;;;;;19.51;57.58;100057.14;105818;1286;23099;-64
2022/12/11 07:41:37;;;;;;;;;1.00;1.00;;;;;19.51;57.39;100055.66;105755;1272;20087;-66
2022/12/11 07:44:05;;;;;;;;;1.00;1.00;;;;;19.50;57.42;100059.20;105794;1279;20698;-65
2022/12/11 07:46:32;;;;;;;;;1.00;1.00;;;;;19.50;57.40;100060.84;105877;1294;18406;-66
2022/12/11 07:49:00;;;;;;;;;2.00;1.00;;;;;19.50;57.32;100067.22;105788;1272;19886;-65
2022/12/11 07:51:28;;;;;;;;;1.00;1.00;;;;;19.51;57.43;100070.32;105814;1280;20524;-66
2022/12/11 07:53:55;;;;;;;;;1.00;1.00;;;;;19.51;57.47;100064.74;105698;1272;20453;-66
2022/12/11 07:56:22;;;;;;;;;1.00;1.00;;;;;19.51;57.43;100066.38;105679;1272;18681;-66
2022/12/11 07:58:49;;;;;;;;;1.00;1.00;;;;;19.51;57.22;100069.30;105789;1294;19266;-66
2022/12/11 08:01:17;;;;;;;;;1.00;1.00;;;;;19.52;57.14;100063.92;105847;1295;18712;-65
2022/12/11 08:03:44;;;;;;;;;1.00;1.00;;;;;19.52;57.19;100061.05;105792;1285;23622;-66
2022/12/11 08:06:12;;;;;;;;;2.00;2.00;;;;;19.51;57.24;100063.48;105758;1272;19288;-63
2022/12/11 08:08:40;;;;;;;;;2.00;2.00;;;;;19.49;56.92;100060.80;105797;1287;18526;-66
2022/12/11 08:11:07;;;;;;;;;1.00;1.00;;;;;19.50;56.97;100064.17;105790;1272;18513;-66
2022/12/11 08:13:34;;;;;;;;;1.00;1.00;;;;;19.50;56.99;100066.47;105826;1295;21921;-65
2022/12/11 08:16:02;;;;;;;;;2.00;2.00;;;;;19.50;56.76;100064.81;105784;1272;18377;-64
2022/12/11 08:18:29;;;;;;;;;1.00;1.00;;;;;19.49;56.80;100064.54;105839;1280;21253;-65
2022/12/11 08:20:56;;;;;;;;;2.00;2.00;;;;;19.50;56.66;100060.52;105820;1276;20744;-66
2022/12/11 08:23:24;;;;;;;;;1.00;1.00;;;;;19.49;56.44;100055.30;105836;1278;19492;-65
2022/12/11 08:25:51;;;;;;;;;2.00;2.00;;;;;19.49;56.70;100053.21;105746;1289;19923;-65
2022/12/11 08:28:18;;;;;;;;;2.00;2.00;;;;;19.48;56.77;100051.45;105779;1278;20753;-66
2022/12/11 08:30:46;;;;;;;;;2.00;2.00;;;;;19.48;56.71;100046.09;105781;1295;23950;-65
2022/12/11 08:33:13;;;;;;;;;2.00;2.00;;;;;19.46;56.77;100045.20;105818;1293;18500;-65
2022/12/11 08:35:40;;;;;;;;;2.00;2.00;;;;;19.49;56.45;100045.73;105884;1280;19136;-65
2022/12/11 08:38:08;;;;;;;;;2.00;2.00;;;;;19.49;56.25;100046.42;105734;1273;19644;-65
2022/12/11 08:40:35;;;;;;;;;2.00;2.00;;;;;19.49;56.16;100047.77;105793;1296;20093;-65
2022/12/11 08:43:02;;;;;;;;;2.00;2.00;;;;;19.48;56.26;100049.81;105756;1295;19415;-66
2022/12/11 08:45:30;;;;;;;;;2.00;2.00;;;;;19.48;56.49;100046.92;105754;1280;21672;-66
2022/12/11 08:47:57;;;;;;;;;2.00;2.00;;;;;19.47;56.79;100048.09;105757;1280;18522;-66
2022/12/11 08:50:24;;;;;;;;;1.00;1.00;;;;;19.47;56.45;100047.12;105762;1279;22823;-67
2022/12/11 08:52:52;;;;;;;;;1.00;1.00;;;;;19.46;56.62;100050.96;105733;1272;19604;-66
2022/12/11 08:55:20;;;;;;;;;2.00;2.00;;;;;19.46;56.46;100051.68;105843;1272;19946;-66
2022/12/11 08:57:48;;;;;;;;;2.00;1.00;;;;;19.47;56.42;100055.08;105810;1273;19279;-65
2022/12/11 09:00:15;;;;;;;;;2.00;2.00;;;;;19.46;56.23;100052.84;105800;1286;18407;-66
2022/12/11 09:02:42;;;;;;;;;1.50;1.50;;;;;19.45;56.52;100050.37;105793;1273;19961;-65
2022/12/11 09:05:10;;;;;;;;;1.00;1.00;;;;;19.46;56.52;100047.05;105865;1273;20782;-66
2022/12/11 09:07:37;;;;;;;;;2.00;2.00;;;;;19.46;56.59;100049.45;105838;1294;22873;-65
2022/12/11 09:10:05;;;;;;;;;2.00;2.00;;;;;19.47;56.65;100050.92;105807;1280;18610;-62
2022/12/11 09:12:32;;;;;;;;;;;;;;;19.51;56.33;100049.31;105561;1273;19370;-63
2022/12/11 09:14:59;;;;;;;;;91.00;68.00;;;;;19.55;56.58;100046.02;105849;1272;21112;-62
2022/12/11 09:17:27;;;;;;;;;109.50;75.50;;;;;19.58;56.30;100040.36;105807;1280;18564;-62
2022/12/11 09:19:54;;;;;;;;;101.00;68.00;;;;;19.60;56.32;100040.87;105819;1279;21348;-65
2022/12/11 09:22:21;;;;;;;;;135.00;98.50;;;;;19.61;56.49;100037.83;105792;1272;20362;-65
2022/12/11 09:24:49;;;;;;;;;115.00;86.50;;;;;19.63;56.92;100041.38;105806;1272;18626;-62
2022/12/11 09:27:16;;;;;;;;;109.00;83.00;;;;;19.68;56.84;100036.05;105815;1272;19301;-64
2022/12/11 09:29:43;;;;;;;;;109.00;81.00;;;;;19.67;56.93;100033.95;105850;1278;18937;-63
2022/12/11 09:32:11;;;;;;;;;93.33;68.00;;;;;19.67;56.93;100033.10;105799;1273;20139;-65
2022/12/11 09:34:38;;;;;;;;;101.00;71.00;;;;;19.65;56.53;100031.25;105833;1294;19368;-65
2022/12/11 09:37:05;;;;;;;;;104.00;73.00;;;;;19.60;56.69;100030.73;105826;1279;19966;-62
2022/12/11 09:39:33;;;;;;;;;108.00;75.00;;;;;19.59;57.12;100027.76;105833;1272;20088;-63
2022/12/11 09:42:00;;;;;;;;;107.00;74.00;;;;;19.61;57.10;100025.28;105826;1278;22610;-63
2022/12/11 09:44:28;;;;;;;;;107.00;76.00;;;;;19.62;57.23;100017.56;105922;1280;20343;-62
2022/12/11 09:46:55;;;;;;;;;116.00;84.00;;;;;19.63;57.18;100016.13;105813;1279;23390;-65
2022/12/11 09:49:22;;;;;;;;;116.00;94.00;;;;;19.64;57.24;100008.52;105848;1294;20732;-65
2022/12/11 09:51:50;;;;;;;;;;;;;;;19.64;57.31;100002.33;105852;1280;20245;-63
2022/12/11 09:54:17;;;;;;;;;117.00;94.00;;;;;19.63;57.40;99996.59;105866;1288;19647;-65
2022/12/11 09:56:45;;;;;;;;;124.00;93.00;;;;;19.64;57.59;99994.55;105669;1280;22786;-64
2022/12/11 09:59:12;;;;;;;;;;;;;;;19.65;57.54;99988.95;105695;1280;20288;-64
2022/12/11 10:01:39;;;;;;;;;109.00;78.00;;;;;19.68;57.73;99983.81;105807;1280;19641;-65
2022/12/11 10:04:07;;;;;;;;;111.00;80.00;;;;;19.69;58.15;99977.94;105735;1273;19269;-65
2022/12/11 10:06:34;;;;;;;;;111.00;79.00;;;;;19.69;58.28;99971.01;105794;1295;18767;-66
2022/12/11 10:09:01;;;;;;;;;90.00;62.00;;;;;19.69;58.50;99964.55;105706;1273;18905;-65
2022/12/11 10:11:29;;;;;;;;;76.00;57.00;;;;;19.75;58.72;99963.96;105634;1272;21965;-62
2022/12/11 10:13:56;;;;;;;;;56.00;46.00;;;;;19.77;59.07;99965.23;105871;1272;18434;-64
2022/12/11 10:16:23;;;;;;;;;65.00;48.00;;;;;19.75;58.93;99962.13;105771;1279;19973;-63
2022/12/11 10:18:51;;;;;;;;;49.00;42.00;;;;;19.72;58.99;99959.40;105731;1273;22930;-63
2022/12/11 10:21:18;;;;;;;;;48.00;41.00;;;;;19.68;58.97;99962.98;105756;1294;18459;-65
2022/12/11 10:23:46;;;;;;;;;45.50;37.00;;;;;19.67;58.79;99960.66;105791;1286;22133;-66
2022/12/11 10:26:13;;;;;;;;;37.50;31.50;;;;;19.71;58.67;99957.96;105733;1280;19353;-65
2022/12/11 10:28:40;;;;;;;;;32.50;29.50;;;;;19.70;58.77;99949.64;105715;1272;22175;-64
2022/12/11 10:31:08;;;;;;;;;35.50;30.50;;;;;19.70;58.66;99944.31;105792;1272;18785;-62
2022/12/11 10:33:36;;;;;;;;;49.00;43.00;;;;;19.69;58.50;99939.48;105769;1272;19279;-64
2022/12/11 10:36:03;;;;;;;;;57.50;46.50;;;;;19.69;58.05;99936.28;105774;1280;18488;-63
2022/12/11 10:38:30;;;;;;;;;69.00;55.50;;;;;19.69;57.91;99938.38;105677;1280;20797;-64
2022/12/11 10:40:58;;;;;;;;;81.00;64.00;;;;;19.69;57.75;99939.17;105744;1295;19290;-65
2022/12/11 10:43:25;;;;;;;;;79.50;62.50;;;;;19.71;57.74;99931.86;105823;1273;18472;-68
2022/12/11 10:45:52;;;;;;;;;68.00;56.00;;;;;19.71;57.97;99929.86;105842;1286;18590;-65
2022/12/11 10:48:20;;;;;;;;;69.00;53.00;;;;;19.72;58.12;99927.20;105785;1280;23285;-64
2022/12/11 10:50:47;;;;;;;;;55.00;47.00;;;;;19.74;58.01;99928.52;105759;1273;20242;-64
2022/12/11 10:53:14;;;;;;;;;58.00;43.00;;;;;19.74;57.97;99924.55;105789;1279;18605;-65
2022/12/11 10:55:42;;;;;;;;;44.00;37.00;;;;;19.78;57.87;99923.38;105910;1298;20866;-64
2022/12/11 10:58:09;;;;;;;;;43.50;36.50;;;;;19.79;57.80;99922.34;105879;1295;18626;-65
2022/12/11 11:00:37;;;;;;;;;39.00;33.00;;;;;19.80;57.88;99921.10;105856;1280;18635;-66
2022/12/11 11:03:04;;;;;;;;;39.50;33.00;;;;;19.77;57.69;99914.79;105869;1273;19424;-64
2022/12/11 11:05:33;;;;;;;;;29.50;26.50;;;;;19.75;57.49;99913.80;105697;1286;22349;-63
2022/12/11 11:08:00;;;;;;;;;26.50;24.00;;;;;19.71;57.47;99903.55;105865;1295;18879;-64
2022/12/11 11:10:27;;;;;;;;;25.00;24.00;;;;;19.69;57.55;99899.39;105901;1294;20973;-64
2022/12/11 11:12:55;;;;;;;;;21.00;19.00;;;;;19.67;57.42;99891.20;105872;1276;18738;-63
2022/12/11 11:15:22;;;;;;;;;20.50;17.50;;;;;19.65;57.34;99883.65;105904;1280;19003;-65
2022/12/11 11:17:49;;;;;;;;;24.00;18.00;;;;;19.65;57.35;99881.52;105839;1294;19230;-63
2022/12/11 11:20:17;;;;;;;;;21.00;20.00;;;;;19.63;57.51;99881.23;105880;1279;23443;-65
2022/12/11 11:22:44;;;;;;;;;18.00;16.00;;;;;19.62;57.22;99878.59;105777;1291;18665;-66
2022/12/11 11:25:11;;;;;;;;;17.00;14.50;;;;;19.62;57.23;99880.63;105792;1294;19334;-65
2022/12/11 11:27:39;;;;;;;;;15.00;14.00;;;;;19.60;57.24;99883.13;105839;1280;18473;-64